createdAt,value
2023-04-12T00:00:57.604Z,9.00
2023-04-12T00:05:57.520Z,8.50
2023-04-12T00:10:57.467Z,23.70
2023-04-12T00:15:57.453Z,66.20
2023-04-12T00:20:57.331Z,64.60
2023-04-12T00:25:57.267Z,60.30
2023-04-12T00:30:57.242Z,60.20
2023-04-12T00:35:57.228Z,49.40
2023-04-12T00:40:57.086Z,36.60
2023-04-12T00:45:57.040Z,31.90
2023-04-12T00:50:56.977Z,22.00
2023-04-12T00:55:56.892Z,22.60
2023-04-12T01:00:56.895Z,19.40
2023-04-12T01:05:56.762Z,14.30
2023-04-12T01:10:56.694Z,14.60
2023-04-12T01:15:56.664Z,14.60
2023-04-12T01:20:56.560Z,16.10
2023-04-12T01:25:56.501Z,13.40
2023-04-12T01:30:56.443Z,17.00
2023-04-12T01:35:56.387Z,16.10
2023-04-12T01:40:56.300Z,13.70
2023-04-12T01:45:56.257Z,16.20
2023-04-12T01:50:56.169Z,14.00
2023-04-12T01:55:56.098Z,14.40
2023-04-12T02:00:56.087Z,11.00
2023-04-12T02:05:55.982Z,11.20
2023-04-12T02:10:55.906Z,10.40
2023-04-12T02:15:55.838Z,9.80
2023-04-12T02:20:55.762Z,11.40
2023-04-12T02:25:55.709Z,10.60
2023-04-12T02:30:55.652Z,12.10
2023-04-12T02:35:55.587Z,10.00
2023-04-12T02:40:55.526Z,10.70
2023-04-12T02:45:55.481Z,12.60
2023-04-12T02:50:55.382Z,10.30
2023-04-12T02:55:55.324Z,9.80
2023-04-12T03:00:55.227Z,10.40
2023-04-12T03:05:55.295Z,11.40
2023-04-12T03:10:55.107Z,11.10
2023-04-12T03:15:55.068Z,8.90
2023-04-12T03:20:54.970Z,11.30
2023-04-12T03:25:54.913Z,10.30
2023-04-12T03:30:54.839Z,11.70
2023-04-12T03:35:54.808Z,10.50
2023-04-12T03:40:54.687Z,10.90
2023-04-12T03:45:54.632Z,10.60
2023-04-12T03:50:54.589Z,11.00
2023-04-12T03:55:54.510Z,13.20
2023-04-12T04:00:54.446Z,12.30
2023-04-12T04:05:54.390Z,11.10
2023-04-12T04:10:54.305Z,13.10
2023-04-12T04:15:54.277Z,12.20
2023-04-12T04:20:54.175Z,11.60
2023-04-12T04:25:54.121Z,13.10
2023-04-12T04:30:54.047Z,12.60
2023-04-12T04:35:54.020Z,11.80
2023-04-12T04:40:53.968Z,11.00
2023-04-12T04:45:53.878Z,10.60
2023-04-12T04:50:53.782Z,11.20
2023-04-12T04:55:53.721Z,10.30
2023-04-12T05:00:53.911Z,9.60
2023-04-12T05:05:53.620Z,8.30
2023-04-12T05:10:53.528Z,7.40
2023-04-12T05:15:53.491Z,8.00
2023-04-12T05:20:53.418Z,6.80
2023-04-12T05:25:53.322Z,8.10
2023-04-12T05:30:53.302Z,7.90
2023-04-12T05:35:53.259Z,7.30
2023-04-12T05:40:53.119Z,7.00
2023-04-12T05:45:53.265Z,6.00
2023-04-12T05:50:53.014Z,6.80
2023-04-12T05:55:52.956Z,7.60
2023-04-12T06:00:52.862Z,6.70
2023-04-12T06:05:52.831Z,7.10
2023-04-12T06:10:52.724Z,7.90
2023-04-12T06:15:52.742Z,5.40
2023-04-12T06:20:52.592Z,5.90
2023-04-12T06:25:52.523Z,7.10
2023-04-12T06:30:52.456Z,5.40
2023-04-12T06:35:52.429Z,6.90
2023-04-12T06:40:52.325Z,6.10
2023-04-12T06:45:52.260Z,6.70
2023-04-12T06:50:52.193Z,8.90
2023-04-12T06:55:52.153Z,7.90
2023-04-12T07:00:52.149Z,7.10
2023-04-12T07:05:52.008Z,6.30
2023-04-12T07:10:51.949Z,7.10
2023-04-12T07:15:51.887Z,7.00
2023-04-12T07:20:51.853Z,6.60
2023-04-12T07:25:51.760Z,7.20
2023-04-12T07:30:51.679Z,7.10
2023-04-12T07:35:51.667Z,6.90
2023-04-12T07:40:51.559Z,6.90
2023-04-12T07:45:51.508Z,5.90
2023-04-12T07:50:51.494Z,6.10
2023-04-12T07:55:51.365Z,6.00
2023-04-12T08:00:51.296Z,5.00
2023-04-12T08:05:51.299Z,4.80
2023-04-12T08:10:51.168Z,4.80
2023-04-12T08:15:51.127Z,3.90
2023-04-12T08:20:51.037Z,5.10
2023-04-12T08:25:50.954Z,5.10
2023-04-12T08:30:50.964Z,3.90
2023-04-12T08:35:50.857Z,5.10
2023-04-12T08:40:50.766Z,4.10
2023-04-12T08:45:50.706Z,6.30
2023-04-12T08:50:50.759Z,3.50
2023-04-12T08:55:50.566Z,4.60
2023-04-12T09:00:50.496Z,4.30
2023-04-12T09:05:50.427Z,4.30
2023-04-12T09:10:50.362Z,3.20
2023-04-12T09:15:50.296Z,4.10
2023-04-12T09:20:50.218Z,3.30
2023-04-12T09:25:50.170Z,5.30
2023-04-12T09:30:50.089Z,3.20
2023-04-12T09:35:50.114Z,3.00
2023-04-12T09:40:49.960Z,3.10
2023-04-12T09:45:49.954Z,4.20
2023-04-12T09:50:49.865Z,5.40
2023-04-12T09:55:49.753Z,4.40
2023-04-12T10:00:49.697Z,2.90
2023-04-12T10:05:49.624Z,4.50
2023-04-12T10:10:49.573Z,3.40
2023-04-12T10:15:49.579Z,2.90
2023-04-12T10:20:49.413Z,3.20
2023-04-12T10:25:49.396Z,3.80
2023-04-12T10:30:49.314Z,5.40
2023-04-12T10:35:49.269Z,3.80
2023-04-12T10:40:49.149Z,5.00
2023-04-12T10:45:49.123Z,7.70
2023-04-12T10:50:49.107Z,3.90
2023-04-12T10:55:48.972Z,5.10
2023-04-12T11:00:48.998Z,7.40
2023-04-12T11:05:48.915Z,5.20
2023-04-12T11:10:48.791Z,5.80
2023-04-12T11:15:48.704Z,5.40
2023-04-12T11:20:48.644Z,5.40
2023-04-12T11:25:48.587Z,6.20
2023-04-12T11:30:48.496Z,6.20
2023-04-12T11:35:48.430Z,6.50
2023-04-12T11:40:48.350Z,5.60
2023-04-12T11:45:48.305Z,7.80
2023-04-12T11:50:54.306Z,5.90
2023-04-12T11:55:49.173Z,8.00
2023-04-12T12:00:48.094Z,4.20
2023-04-12T12:05:48.433Z,6.50
2023-04-12T12:11:06.441Z,5.30
2023-04-12T12:15:48.914Z,6.10
2023-04-12T12:20:47.835Z,6.30
2023-04-12T12:25:47.762Z,7.60
2023-04-12T12:30:47.704Z,5.70
2023-04-12T12:35:47.678Z,5.50
2023-04-12T12:40:47.576Z,5.30
2023-04-12T12:45:47.493Z,7.30
2023-04-12T12:50:47.426Z,4.80
2023-04-12T12:55:47.375Z,4.30
2023-04-12T13:00:47.290Z,6.10
2023-04-12T13:05:47.258Z,5.00
2023-04-12T13:10:47.177Z,5.40
2023-04-12T13:15:47.097Z,5.50
2023-04-12T13:20:47.033Z,5.40
2023-04-12T13:25:47.012Z,4.20
2023-04-12T13:30:46.893Z,3.70
2023-04-12T13:35:46.846Z,5.50
2023-04-12T13:40:46.770Z,4.40
2023-04-12T13:45:46.769Z,4.30
2023-04-12T13:50:48.906Z,3.10
2023-04-12T13:55:46.615Z,5.20
2023-04-12T14:00:46.563Z,3.90
2023-04-12T14:05:46.436Z,4.40
2023-04-12T14:10:46.403Z,5.00
2023-04-12T14:15:46.299Z,5.40
2023-04-12T14:20:46.229Z,5.00
2023-04-12T14:25:46.171Z,5.70
2023-04-12T14:30:46.125Z,4.10
2023-04-12T14:35:46.069Z,3.40
2023-04-12T14:40:45.959Z,5.20
2023-04-12T14:45:45.907Z,3.10
2023-04-12T14:50:45.835Z,4.40
2023-04-12T14:55:45.779Z,3.60
2023-04-12T15:00:46.248Z,4.50
2023-04-12T15:05:45.639Z,4.80
2023-04-12T15:10:45.569Z,4.40
2023-04-12T15:15:45.491Z,4.10
2023-04-12T15:20:45.429Z,4.30
2023-04-12T15:25:45.359Z,4.30
2023-04-12T15:30:45.289Z,5.70
2023-04-12T15:35:45.233Z,5.10
2023-04-12T15:40:45.156Z,6.60
2023-04-12T15:45:45.142Z,5.90
2023-04-12T15:50:45.029Z,5.00
2023-04-12T15:55:44.987Z,5.30
2023-04-12T16:00:44.891Z,6.30
2023-04-12T16:05:44.831Z,4.30
2023-04-12T16:10:44.757Z,5.20
2023-04-12T16:15:44.775Z,5.60
2023-04-12T16:20:44.630Z,4.50
2023-04-12T16:25:44.571Z,6.10
2023-04-12T16:30:44.559Z,5.00
2023-04-12T16:35:44.432Z,4.90
2023-04-12T16:40:44.363Z,4.30
2023-04-12T16:45:44.292Z,3.50
2023-04-12T16:50:44.229Z,4.60
2023-04-12T16:55:44.174Z,4.90
2023-04-12T17:00:44.100Z,3.60
2023-04-12T17:05:44.020Z,4.90
2023-04-12T17:10:43.951Z,4.20
2023-04-12T17:15:43.981Z,4.20
2023-04-12T17:20:43.816Z,3.30
2023-04-12T17:25:43.742Z,2.80
2023-04-12T17:30:43.690Z,4.60
2023-04-12T17:35:43.626Z,3.20
2023-04-12T17:40:43.556Z,3.00
2023-04-12T17:45:43.489Z,3.30
2023-04-12T17:50:43.420Z,6.30
2023-04-12T17:55:43.369Z,4.30
2023-04-12T18:00:43.292Z,3.40
2023-04-12T18:05:43.233Z,5.40
2023-04-12T18:10:43.166Z,4.40
2023-04-12T18:15:43.118Z,3.60
2023-04-12T18:20:43.070Z,3.90
2023-04-12T18:25:42.978Z,4.80
2023-04-12T18:30:42.890Z,4.00
2023-04-12T18:35:42.839Z,5.50
2023-04-12T18:40:42.753Z,5.40
2023-04-12T18:45:42.692Z,4.50
2023-04-12T18:50:42.628Z,5.10
2023-04-12T18:55:42.558Z,5.00
2023-04-12T19:00:42.520Z,4.60
2023-04-12T19:05:42.432Z,4.80
2023-04-12T19:10:42.355Z,4.60
2023-04-12T19:15:42.326Z,4.40
2023-04-12T19:20:42.219Z,6.00
2023-04-12T19:25:42.156Z,4.50
2023-04-12T19:30:42.076Z,3.70
2023-04-12T19:35:42.033Z,4.00
2023-04-12T19:40:41.952Z,4.10
2023-04-12T19:45:41.912Z,5.30
2023-04-12T19:50:41.819Z,5.00
2023-04-12T19:55:41.743Z,3.20
2023-04-12T20:00:41.673Z,4.20
2023-04-12T20:05:41.608Z,3.70
2023-04-12T20:10:41.535Z,3.90
2023-04-12T20:15:41.473Z,3.80
2023-04-12T20:20:41.394Z,3.60
2023-04-12T20:25:41.358Z,4.80
2023-04-12T20:30:41.330Z,4.70
2023-04-12T20:35:41.202Z,4.90
2023-04-12T20:40:41.123Z,4.90
2023-04-12T20:45:41.062Z,5.10
2023-04-12T20:50:40.992Z,4.10
2023-04-12T20:55:40.978Z,3.90
2023-04-12T21:00:40.846Z,4.80
2023-04-12T21:05:40.886Z,4.40
2023-04-12T21:10:40.729Z,4.80
2023-04-12T21:15:40.779Z,4.70
2023-04-12T21:20:40.596Z,4.90
2023-04-12T21:25:40.534Z,4.50
2023-04-12T21:30:40.461Z,5.70
2023-04-12T21:35:40.656Z,4.70
2023-04-12T21:40:40.320Z,5.10
2023-04-12T21:45:40.287Z,7.00
2023-04-12T21:50:40.194Z,4.70
2023-04-12T21:55:40.162Z,5.50
2023-04-12T22:00:40.160Z,4.30
2023-04-12T22:05:40.004Z,5.10
2023-04-12T22:10:39.925Z,5.70
2023-04-12T22:15:39.863Z,4.60
2023-04-12T22:20:39.817Z,5.50
2023-04-12T22:25:39.728Z,5.90
2023-04-12T22:30:39.858Z,6.30
2023-04-12T22:35:39.600Z,6.00
2023-04-12T22:40:39.534Z,6.80
2023-04-12T22:45:39.471Z,6.90
2023-04-12T22:50:39.406Z,7.90
2023-04-12T22:55:39.343Z,7.80
2023-04-12T23:00:39.305Z,8.70
2023-04-12T23:05:39.203Z,8.50
2023-04-12T23:10:39.136Z,7.60
2023-04-12T23:15:39.098Z,6.30
2023-04-12T23:20:39.026Z,5.10
2023-04-12T23:25:39.502Z,5.40
2023-04-12T23:30:38.882Z,4.30
2023-04-12T23:35:38.812Z,4.80
2023-04-12T23:40:38.737Z,3.70
2023-04-12T23:45:38.682Z,3.60
2023-04-12T23:50:38.627Z,3.20
2023-04-12T23:55:38.558Z,3.50
